Bacone, Oklahoma
Current Conditions -  °F | °C
As of 6:53 PM on Wednesday 22 Oct 2014 (Local Time) from KMKO Reporting Station
Clear Clear  
Wind Chill: 65°   Ceiling: Unl
Heat Index: 65°   Visibility: 10mi
Dew Point: 56°   Wind: 7mph
Humidity: 73%   Direction: 130°SE
Pressure: 30.12"   Gusts: NA
Location:  35.6818°N, 95.3578°W
Report Text: KMKO 222353Z AUTO 13006KT 10SM CLR 18/13 A3012 RMK AO2 SLP196 T01830133 10250 20183 55001
Loading
Personal Weather Stations






























Interactive Weather Map
Tropical Storm Tracking
New forecast layout! Learn more

10-Day Weather Forecast

Advertisements
Track Severe Weather on mobile